sensor_id;sensor_type;location;lat;lon;timestamp;P1;durP1;ratioP1;P2;durP2;ratioP2
64854;SDS011;51321;50.428;8.378;2023-03-01T00:01:45;11.20;;;8.27;;
64854;SDS011;51321;50.428;8.378;2023-03-01T00:04:26;11.63;;;8.18;;
64854;SDS011;51321;50.428;8.378;2023-03-01T00:07:08;13.43;;;8.23;;
64854;SDS011;51321;50.428;8.378;2023-03-01T00:09:48;12.20;;;8.18;;
64854;SDS011;51321;50.428;8.378;2023-03-01T00:12:30;11.52;;;7.80;;
64854;SDS011;51321;50.428;8.378;2023-03-01T00:15:12;11.73;;;8.20;;
64854;SDS011;51321;50.428;8.378;2023-03-01T00:17:52;13.43;;;8.57;;
64854;SDS011;51321;50.428;8.378;2023-03-01T00:20:33;17.33;;;11.02;;
64854;SDS011;51321;50.428;8.378;2023-03-01T00:23:16;12.48;;;8.25;;
64854;SDS011;51321;50.428;8.378;2023-03-01T00:25:56;12.68;;;8.13;;
64854;SDS011;51321;50.428;8.378;2023-03-01T00:28:37;11.98;;;7.75;;
64854;SDS011;51321;50.428;8.378;2023-03-01T00:34:02;11.13;;;8.02;;
64854;SDS011;51321;50.428;8.378;2023-03-01T00:36:44;11.25;;;8.40;;
64854;SDS011;51321;50.428;8.378;2023-03-01T00:39:26;12.00;;;8.38;;
64854;SDS011;51321;50.428;8.378;2023-03-01T00:42:08;11.52;;;8.23;;
64854;SDS011;51321;50.428;8.378;2023-03-01T00:44:49;12.60;;;8.38;;
64854;SDS011;51321;50.428;8.378;2023-03-01T00:47:30;13.30;;;8.65;;
64854;SDS011;51321;50.428;8.378;2023-03-01T00:50:11;11.32;;;8.30;;
64854;SDS011;51321;50.428;8.378;2023-03-01T00:52:52;12.48;;;7.85;;
64854;SDS011;51321;50.428;8.378;2023-03-01T00:55:35;12.20;;;9.10;;
64854;SDS011;51321;50.428;8.378;2023-03-01T00:58:18;13.27;;;9.48;;
64854;SDS011;51321;50.428;8.378;2023-03-01T01:00:59;12.90;;;9.02;;
64854;SDS011;51321;50.428;8.378;2023-03-01T01:03:41;12.52;;;9.48;;
64854;SDS011;51321;50.428;8.378;2023-03-01T01:06:23;17.27;;;9.30;;
64854;SDS011;51321;50.428;8.378;2023-03-01T01:09:06;12.57;;;8.57;;
64854;SDS011;51321;50.428;8.378;2023-03-01T01:11:49;13.50;;;8.82;;
64854;SDS011;51321;50.428;8.378;2023-03-01T01:14:31;15.02;;;9.40;;
64854;SDS011;51321;50.428;8.378;2023-03-01T01:17:13;11.90;;;9.35;;
64854;SDS011;51321;50.428;8.378;2023-03-01T01:19:54;12.15;;;8.02;;
64854;SDS011;51321;50.428;8.378;2023-03-01T01:22:36;13.48;;;9.05;;
64854;SDS011;51321;50.428;8.378;2023-03-01T01:25:17;14.05;;;9.43;;
64854;SDS011;51321;50.428;8.378;2023-03-01T01:28:00;14.30;;;8.65;;
64854;SDS011;51321;50.428;8.378;2023-03-01T01:30:42;12.38;;;9.20;;
64854;SDS011;51321;50.428;8.378;2023-03-01T01:33:23;14.48;;;9.02;;
64854;SDS011;51321;50.428;8.378;2023-03-01T01:36:04;15.45;;;8.68;;
64854;SDS011;51321;50.428;8.378;2023-03-01T01:38:46;14.30;;;9.95;;
64854;SDS011;51321;50.428;8.378;2023-03-01T01:41:28;13.13;;;8.80;;
64854;SDS011;51321;50.428;8.378;2023-03-01T01:44:16;12.98;;;8.85;;
64854;SDS011;51321;50.428;8.378;2023-03-01T01:47:00;15.02;;;9.98;;
64854;SDS011;51321;50.428;8.378;2023-03-01T01:49:45;12.48;;;9.65;;
64854;SDS011;51321;50.428;8.378;2023-03-01T01:52:30;14.43;;;9.55;;
64854;SDS011;51321;50.428;8.378;2023-03-01T01:55:15;14.52;;;8.48;;
64854;SDS011;51321;50.428;8.378;2023-03-01T01:58:02;16.42;;;9.32;;
64854;SDS011;51321;50.428;8.378;2023-03-01T02:00:46;14.90;;;9.27;;
64854;SDS011;51321;50.428;8.378;2023-03-01T02:03:29;14.98;;;9.60;;
64854;SDS011;51321;50.428;8.378;2023-03-01T02:06:17;15.98;;;10.27;;
64854;SDS011;51321;50.428;8.378;2023-03-01T02:09:04;17.35;;;9.52;;
64854;SDS011;51321;50.428;8.378;2023-03-01T02:11:49;16.77;;;10.50;;
64854;SDS011;51321;50.428;8.378;2023-03-01T02:14:31;15.43;;;10.07;;
64854;SDS011;51321;50.428;8.378;2023-03-01T02:17:17;14.20;;;9.15;;
64854;SDS011;51321;50.428;8.378;2023-03-01T02:20:03;11.35;;;8.48;;
64854;SDS011;51321;50.428;8.378;2023-03-01T02:22:55;12.60;;;8.38;;
64854;SDS011;51321;50.428;8.378;2023-03-01T02:25:39;11.32;;;7.95;;
64854;SDS011;51321;50.428;8.378;2023-03-01T02:28:30;10.68;;;8.93;;
64854;SDS011;51321;50.428;8.378;2023-03-01T02:31:14;12.85;;;9.13;;
64854;SDS011;51321;50.428;8.378;2023-03-01T02:34:14;16.90;;;9.70;;
64854;SDS011;51321;50.428;8.378;2023-03-01T02:39:42;14.23;;;10.20;;
64854;SDS011;51321;50.428;8.378;2023-03-01T02:42:29;12.35;;;9.50;;
64854;SDS011;51321;50.428;8.378;2023-03-01T02:45:15;12.45;;;7.95;;
64854;SDS011;51321;50.428;8.378;2023-03-01T02:47:57;14.50;;;9.02;;
64854;SDS011;51321;50.428;8.378;2023-03-01T02:50:44;13.80;;;9.32;;
64854;SDS011;51321;50.428;8.378;2023-03-01T02:53:39;13.25;;;8.55;;
64854;SDS011;51321;50.428;8.378;2023-03-01T02:56:24;12.50;;;8.32;;
64854;SDS011;51321;50.428;8.378;2023-03-01T02:59:06;12.05;;;8.18;;
64854;SDS011;51321;50.428;8.378;2023-03-01T03:01:49;13.90;;;9.10;;
64854;SDS011;51321;50.428;8.378;2023-03-01T03:04:30;12.48;;;9.15;;
64854;SDS011;51321;50.428;8.378;2023-03-01T03:07:12;16.58;;;10.35;;
64854;SDS011;51321;50.428;8.378;2023-03-01T03:09:53;15.93;;;9.93;;
64854;SDS011;51321;50.428;8.378;2023-03-01T03:12:34;13.77;;;9.38;;
64854;SDS011;51321;50.428;8.378;2023-03-01T03:15:16;15.65;;;10.65;;
64854;SDS011;51321;50.428;8.378;2023-03-01T03:17:58;13.13;;;8.82;;
64854;SDS011;51321;50.428;8.378;2023-03-01T03:20:39;12.27;;;9.50;;
64854;SDS011;51321;50.428;8.378;2023-03-01T03:23:21;13.75;;;9.52;;
64854;SDS011;51321;50.428;8.378;2023-03-01T03:26:02;15.48;;;10.35;;
64854;SDS011;51321;50.428;8.378;2023-03-01T03:28:44;12.60;;;8.98;;
64854;SDS011;51321;50.428;8.378;2023-03-01T03:31:26;11.93;;;8.05;;
64854;SDS011;51321;50.428;8.378;2023-03-01T03:34:08;13.90;;;8.32;;
64854;SDS011;51321;50.428;8.378;2023-03-01T03:36:57;12.27;;;8.55;;
64854;SDS011;51321;50.428;8.378;2023-03-01T03:39:38;15.73;;;10.65;;
64854;SDS011;51321;50.428;8.378;2023-03-01T03:42:18;14.82;;;9.57;;
64854;SDS011;51321;50.428;8.378;2023-03-01T03:44:59;13.07;;;8.80;;
64854;SDS011;51321;50.428;8.378;2023-03-01T03:47:42;13.60;;;9.43;;
64854;SDS011;51321;50.428;8.378;2023-03-01T03:50:26;14.20;;;9.93;;
64854;SDS011;51321;50.428;8.378;2023-03-01T03:55:48;16.65;;;10.85;;
64854;SDS011;51321;50.428;8.378;2023-03-01T03:58:30;19.33;;;11.10;;
64854;SDS011;51321;50.428;8.378;2023-03-01T04:01:11;15.40;;;10.43;;
64854;SDS011;51321;50.428;8.378;2023-03-01T04:03:52;16.90;;;10.45;;
64854;SDS011;51321;50.428;8.378;2023-03-01T04:06:34;15.65;;;10.77;;
64854;SDS011;51321;50.428;8.378;2023-03-01T04:09:15;14.25;;;8.65;;
64854;SDS011;51321;50.428;8.378;2023-03-01T04:11:55;14.98;;;10.32;;
64854;SDS011;51321;50.428;8.378;2023-03-01T04:14:36;15.40;;;9.70;;
64854;SDS011;51321;50.428;8.378;2023-03-01T04:17:17;12.65;;;8.77;;
64854;SDS011;51321;50.428;8.378;2023-03-01T04:19:57;12.98;;;9.82;;
64854;SDS011;51321;50.428;8.378;2023-03-01T04:22:40;14.38;;;9.07;;
64854;SDS011;51321;50.428;8.378;2023-03-01T04:25:21;14.18;;;10.27;;
64854;SDS011;51321;50.428;8.378;2023-03-01T04:28:04;17.33;;;11.20;;
64854;SDS011;51321;50.428;8.378;2023-03-01T04:30:50;14.98;;;9.95;;
64854;SDS011;51321;50.428;8.378;2023-03-01T04:36:12;18.35;;;11.30;;
64854;SDS011;51321;50.428;8.378;2023-03-01T04:38:56;16.50;;;11.52;;
64854;SDS011;51321;50.428;8.378;2023-03-01T04:41:37;16.05;;;10.88;;
64854;SDS011;51321;50.428;8.378;2023-03-01T04:44:18;16.45;;;11.77;;
64854;SDS011;51321;50.428;8.378;2023-03-01T04:46:59;16.83;;;11.75;;
64854;SDS011;51321;50.428;8.378;2023-03-01T04:49:40;19.55;;;11.80;;
64854;SDS011;51321;50.428;8.378;2023-03-01T04:52:21;17.98;;;12.35;;
64854;SDS011;51321;50.428;8.378;2023-03-01T04:55:04;18.27;;;12.27;;
64854;SDS011;51321;50.428;8.378;2023-03-01T04:57:46;18.60;;;11.20;;
64854;SDS011;51321;50.428;8.378;2023-03-01T05:00:27;18.15;;;12.15;;
64854;SDS011;51321;50.428;8.378;2023-03-01T05:03:08;19.65;;;12.40;;
64854;SDS011;51321;50.428;8.378;2023-03-01T05:05:58;17.23;;;11.45;;
64854;SDS011;51321;50.428;8.378;2023-03-01T05:08:39;17.95;;;12.05;;
64854;SDS011;51321;50.428;8.378;2023-03-01T05:11:23;16.20;;;10.82;;
64854;SDS011;51321;50.428;8.378;2023-03-01T05:14:04;15.48;;;11.23;;
64854;SDS011;51321;50.428;8.378;2023-03-01T05:16:46;21.20;;;13.18;;
64854;SDS011;51321;50.428;8.378;2023-03-01T05:19:27;23.35;;;14.80;;
64854;SDS011;51321;50.428;8.378;2023-03-01T05:22:09;17.92;;;11.45;;
64854;SDS011;51321;50.428;8.378;2023-03-01T05:24:50;19.63;;;12.50;;
64854;SDS011;51321;50.428;8.378;2023-03-01T05:27:34;20.17;;;14.13;;
64854;SDS011;51321;50.428;8.378;2023-03-01T05:30:17;24.88;;;14.15;;
64854;SDS011;51321;50.428;8.378;2023-03-01T05:32:58;23.48;;;16.60;;
64854;SDS011;51321;50.428;8.378;2023-03-01T05:35:40;22.30;;;15.05;;
64854;SDS011;51321;50.428;8.378;2023-03-01T05:38:21;16.85;;;11.95;;
64854;SDS011;51321;50.428;8.378;2023-03-01T05:41:02;21.77;;;14.20;;
64854;SDS011;51321;50.428;8.378;2023-03-01T05:43:44;22.65;;;15.30;;
64854;SDS011;51321;50.428;8.378;2023-03-01T05:46:25;26.55;;;16.65;;
64854;SDS011;51321;50.428;8.378;2023-03-01T05:49:08;19.80;;;12.07;;
64854;SDS011;51321;50.428;8.378;2023-03-01T05:51:49;17.00;;;11.30;;
64854;SDS011;51321;50.428;8.378;2023-03-01T05:54:31;25.88;;;16.98;;
64854;SDS011;51321;50.428;8.378;2023-03-01T05:57:12;19.17;;;12.27;;
64854;SDS011;51321;50.428;8.378;2023-03-01T05:59:55;18.23;;;12.77;;
64854;SDS011;51321;50.428;8.378;2023-03-01T06:02:35;19.02;;;10.90;;
64854;SDS011;51321;50.428;8.378;2023-03-01T06:05:17;58.17;;;35.30;;
64854;SDS011;51321;50.428;8.378;2023-03-01T06:07:59;26.17;;;16.80;;
64854;SDS011;51321;50.428;8.378;2023-03-01T06:10:39;24.70;;;15.70;;
64854;SDS011;51321;50.428;8.378;2023-03-01T06:13:20;22.10;;;13.65;;
64854;SDS011;51321;50.428;8.378;2023-03-01T06:16:07;20.05;;;12.57;;
64854;SDS011;51321;50.428;8.378;2023-03-01T06:18:49;24.25;;;13.50;;
64854;SDS011;51321;50.428;8.378;2023-03-01T06:21:30;19.40;;;13.95;;
64854;SDS011;51321;50.428;8.378;2023-03-01T06:24:12;20.50;;;12.85;;
64854;SDS011;51321;50.428;8.378;2023-03-01T06:26:52;18.65;;;12.43;;
64854;SDS011;51321;50.428;8.378;2023-03-01T06:29:33;17.52;;;11.77;;
64854;SDS011;51321;50.428;8.378;2023-03-01T06:32:16;18.65;;;12.23;;
64854;SDS011;51321;50.428;8.378;2023-03-01T06:34:57;23.67;;;15.25;;
64854;SDS011;51321;50.428;8.378;2023-03-01T06:37:38;21.20;;;13.25;;
64854;SDS011;51321;50.428;8.378;2023-03-01T06:40:19;23.45;;;13.90;;
64854;SDS011;51321;50.428;8.378;2023-03-01T06:43:00;22.20;;;13.98;;
64854;SDS011;51321;50.428;8.378;2023-03-01T06:45:41;18.90;;;13.52;;
64854;SDS011;51321;50.428;8.378;2023-03-01T06:48:26;20.75;;;11.93;;
64854;SDS011;51321;50.428;8.378;2023-03-01T06:51:10;18.92;;;12.15;;
64854;SDS011;51321;50.428;8.378;2023-03-01T06:53:51;18.85;;;12.63;;
64854;SDS011;51321;50.428;8.378;2023-03-01T06:56:32;21.65;;;13.02;;
64854;SDS011;51321;50.428;8.378;2023-03-01T06:59:13;15.98;;;11.65;;
64854;SDS011;51321;50.428;8.378;2023-03-01T07:01:54;19.98;;;11.95;;
64854;SDS011;51321;50.428;8.378;2023-03-01T07:04:37;18.30;;;11.82;;
64854;SDS011;51321;50.428;8.378;2023-03-01T07:07:18;18.10;;;11.88;;
64854;SDS011;51321;50.428;8.378;2023-03-01T07:09:59;21.13;;;11.97;;
64854;SDS011;51321;50.428;8.378;2023-03-01T07:12:40;19.40;;;13.15;;
64854;SDS011;51321;50.428;8.378;2023-03-01T07:15:22;18.45;;;11.40;;
64854;SDS011;51321;50.428;8.378;2023-03-01T07:18:02;18.63;;;11.80;;
64854;SDS011;51321;50.428;8.378;2023-03-01T07:20:45;17.30;;;12.40;;
64854;SDS011;51321;50.428;8.378;2023-03-01T07:23:25;17.25;;;12.20;;
64854;SDS011;51321;50.428;8.378;2023-03-01T07:26:07;15.65;;;11.07;;
64854;SDS011;51321;50.428;8.378;2023-03-01T07:28:48;17.65;;;11.10;;
64854;SDS011;51321;50.428;8.378;2023-03-01T07:31:29;16.92;;;11.45;;
64854;SDS011;51321;50.428;8.378;2023-03-01T07:34:10;20.05;;;11.77;;
64854;SDS011;51321;50.428;8.378;2023-03-01T07:36:52;17.00;;;11.88;;
64854;SDS011;51321;50.428;8.378;2023-03-01T07:39:34;19.13;;;11.43;;
64854;SDS011;51321;50.428;8.378;2023-03-01T07:42:15;19.85;;;12.02;;
64854;SDS011;51321;50.428;8.378;2023-03-01T07:44:56;16.80;;;11.73;;
64854;SDS011;51321;50.428;8.378;2023-03-01T07:47:36;16.50;;;11.15;;
64854;SDS011;51321;50.428;8.378;2023-03-01T07:50:17;17.92;;;12.00;;
64854;SDS011;51321;50.428;8.378;2023-03-01T07:55:44;15.48;;;11.05;;
64854;SDS011;51321;50.428;8.378;2023-03-01T07:58:27;16.85;;;11.35;;
64854;SDS011;51321;50.428;8.378;2023-03-01T08:01:08;20.35;;;12.48;;
64854;SDS011;51321;50.428;8.378;2023-03-01T08:03:50;17.38;;;12.27;;
64854;SDS011;51321;50.428;8.378;2023-03-01T08:06:31;19.20;;;11.98;;
64854;SDS011;51321;50.428;8.378;2023-03-01T08:09:15;20.58;;;13.02;;
64854;SDS011;51321;50.428;8.378;2023-03-01T08:11:56;17.00;;;11.73;;
64854;SDS011;51321;50.428;8.378;2023-03-01T08:14:38;15.73;;;10.83;;
64854;SDS011;51321;50.428;8.378;2023-03-01T08:17:19;17.52;;;11.27;;
64854;SDS011;51321;50.428;8.378;2023-03-01T08:19:59;19.17;;;12.95;;
64854;SDS011;51321;50.428;8.378;2023-03-01T08:22:42;17.10;;;11.90;;
64854;SDS011;51321;50.428;8.378;2023-03-01T08:25:25;18.08;;;12.18;;
64854;SDS011;51321;50.428;8.378;2023-03-01T08:28:06;19.92;;;12.13;;
64854;SDS011;51321;50.428;8.378;2023-03-01T08:30:46;18.42;;;11.50;;
64854;SDS011;51321;50.428;8.378;2023-03-01T08:33:28;15.02;;;10.65;;
64854;SDS011;51321;50.428;8.378;2023-03-01T08:36:09;17.05;;;12.38;;
64854;SDS011;51321;50.428;8.378;2023-03-01T08:38:50;18.42;;;11.43;;
64854;SDS011;51321;50.428;8.378;2023-03-01T08:41:32;22.38;;;12.55;;
64854;SDS011;51321;50.428;8.378;2023-03-01T08:44:13;16.30;;;11.13;;
64854;SDS011;51321;50.428;8.378;2023-03-01T08:46:56;17.17;;;11.45;;
64854;SDS011;51321;50.428;8.378;2023-03-01T08:49:36;17.73;;;12.27;;
64854;SDS011;51321;50.428;8.378;2023-03-01T08:52:17;16.52;;;10.82;;
64854;SDS011;51321;50.428;8.378;2023-03-01T08:54:58;17.83;;;10.70;;
64854;SDS011;51321;50.428;8.378;2023-03-01T08:57:41;17.27;;;11.80;;
64854;SDS011;51321;50.428;8.378;2023-03-01T09:00:22;15.15;;;10.55;;
64854;SDS011;51321;50.428;8.378;2023-03-01T09:03:03;15.95;;;11.73;;
64854;SDS011;51321;50.428;8.378;2023-03-01T09:05:44;17.05;;;10.52;;
64854;SDS011;51321;50.428;8.378;2023-03-01T09:08:25;15.13;;;11.77;;
64854;SDS011;51321;50.428;8.378;2023-03-01T09:11:06;16.10;;;11.50;;
64854;SDS011;51321;50.428;8.378;2023-03-01T09:13:50;20.08;;;10.98;;
64854;SDS011;51321;50.428;8.378;2023-03-01T09:16:31;15.90;;;10.23;;
64854;SDS011;51321;50.428;8.378;2023-03-01T09:19:14;15.15;;;10.40;;
64854;SDS011;51321;50.428;8.378;2023-03-01T09:21:55;16.02;;;9.82;;
64854;SDS011;51321;50.428;8.378;2023-03-01T09:24:38;17.10;;;9.73;;
64854;SDS011;51321;50.428;8.378;2023-03-01T09:27:19;12.90;;;9.55;;
64854;SDS011;51321;50.428;8.378;2023-03-01T09:30:01;15.52;;;10.57;;
64854;SDS011;51321;50.428;8.378;2023-03-01T09:32:43;14.90;;;10.20;;
64854;SDS011;51321;50.428;8.378;2023-03-01T09:35:23;15.00;;;10.27;;
64854;SDS011;51321;50.428;8.378;2023-03-01T09:38:07;17.27;;;10.88;;
64854;SDS011;51321;50.428;8.378;2023-03-01T09:40:48;13.65;;;9.18;;
64854;SDS011;51321;50.428;8.378;2023-03-01T09:43:30;13.10;;;9.52;;
64854;SDS011;51321;50.428;8.378;2023-03-01T09:46:22;16.88;;;11.35;;
64854;SDS011;51321;50.428;8.378;2023-03-01T09:49:04;14.50;;;9.60;;
64854;SDS011;51321;50.428;8.378;2023-03-01T09:51:53;20.80;;;10.60;;
64854;SDS011;51321;50.428;8.378;2023-03-01T09:54:37;15.80;;;9.23;;
64854;SDS011;51321;50.428;8.378;2023-03-01T09:57:19;18.42;;;9.75;;
64854;SDS011;51321;50.428;8.378;2023-03-01T10:00:13;14.75;;;9.68;;
64854;SDS011;51321;50.428;8.378;2023-03-01T10:03:03;17.23;;;10.27;;
64854;SDS011;51321;50.428;8.378;2023-03-01T10:05:56;12.85;;;9.35;;
64854;SDS011;51321;50.428;8.378;2023-03-01T10:08:51;16.25;;;9.15;;
64854;SDS011;51321;50.428;8.378;2023-03-01T10:11:37;15.07;;;9.95;;
64854;SDS011;51321;50.428;8.378;2023-03-01T10:14:23;13.90;;;8.77;;
64854;SDS011;51321;50.428;8.378;2023-03-01T10:17:10;15.43;;;9.27;;
64854;SDS011;51321;50.428;8.378;2023-03-01T10:20:05;14.23;;;8.70;;
64854;SDS011;51321;50.428;8.378;2023-03-01T10:22:55;15.80;;;9.18;;
64854;SDS011;51321;50.428;8.378;2023-03-01T10:25:40;13.05;;;8.70;;
64854;SDS011;51321;50.428;8.378;2023-03-01T10:28:29;12.75;;;9.20;;
64854;SDS011;51321;50.428;8.378;2023-03-01T10:31:18;13.13;;;8.27;;
64854;SDS011;51321;50.428;8.378;2023-03-01T10:34:02;10.07;;;7.75;;
64854;SDS011;51321;50.428;8.378;2023-03-01T10:36:44;13.07;;;8.63;;
64854;SDS011;51321;50.428;8.378;2023-03-01T10:39:28;13.50;;;8.70;;
64854;SDS011;51321;50.428;8.378;2023-03-01T10:42:19;13.65;;;9.15;;
64854;SDS011;51321;50.428;8.378;2023-03-01T10:45:15;11.55;;;8.43;;
64854;SDS011;51321;50.428;8.378;2023-03-01T10:48:03;11.63;;;7.90;;
64854;SDS011;51321;50.428;8.378;2023-03-01T10:50:46;10.13;;;7.63;;
64854;SDS011;51321;50.428;8.378;2023-03-01T10:53:31;11.98;;;8.63;;
64854;SDS011;51321;50.428;8.378;2023-03-01T10:56:14;13.07;;;8.45;;
64854;SDS011;51321;50.428;8.378;2023-03-01T10:58:57;12.05;;;7.82;;
64854;SDS011;51321;50.428;8.378;2023-03-01T11:01:39;11.10;;;7.97;;
64854;SDS011;51321;50.428;8.378;2023-03-01T11:04:20;10.90;;;8.00;;
64854;SDS011;51321;50.428;8.378;2023-03-01T11:07:01;11.57;;;8.25;;
64854;SDS011;51321;50.428;8.378;2023-03-01T11:09:45;12.45;;;8.13;;
64854;SDS011;51321;50.428;8.378;2023-03-01T11:12:26;11.88;;;7.88;;
64854;SDS011;51321;50.428;8.378;2023-03-01T11:15:15;12.10;;;8.07;;
64854;SDS011;51321;50.428;8.378;2023-03-01T11:18:01;11.57;;;8.13;;
64854;SDS011;51321;50.428;8.378;2023-03-01T11:20:42;11.20;;;7.50;;
64854;SDS011;51321;50.428;8.378;2023-03-01T11:23:25;10.77;;;7.63;;
64854;SDS011;51321;50.428;8.378;2023-03-01T11:26:10;10.73;;;6.90;;
64854;SDS011;51321;50.428;8.378;2023-03-01T11:28:55;13.20;;;8.40;;
64854;SDS011;51321;50.428;8.378;2023-03-01T11:31:42;11.63;;;8.27;;
64854;SDS011;51321;50.428;8.378;2023-03-01T11:34:29;10.88;;;7.65;;
64854;SDS011;51321;50.428;8.378;2023-03-01T11:37:26;10.50;;;7.70;;
64854;SDS011;51321;50.428;8.378;2023-03-01T11:40:15;10.45;;;6.72;;
64854;SDS011;51321;50.428;8.378;2023-03-01T11:43:09;11.90;;;7.45;;
64854;SDS011;51321;50.428;8.378;2023-03-01T11:46:06;11.65;;;8.02;;
64854;SDS011;51321;50.428;8.378;2023-03-01T11:49:09;12.07;;;7.57;;
64854;SDS011;51321;50.428;8.378;2023-03-01T11:55:11;9.60;;;7.15;;
64854;SDS011;51321;50.428;8.378;2023-03-01T11:58:13;10.18;;;7.15;;
64854;SDS011;51321;50.428;8.378;2023-03-01T12:01:10;12.93;;;6.70;;
64854;SDS011;51321;50.428;8.378;2023-03-01T12:07:13;11.32;;;7.20;;
64854;SDS011;51321;50.428;8.378;2023-03-01T12:10:01;10.73;;;7.95;;
64854;SDS011;51321;50.428;8.378;2023-03-01T12:13:06;11.55;;;7.40;;
64854;SDS011;51321;50.428;8.378;2023-03-01T12:16:15;13.65;;;7.85;;
64854;SDS011;51321;50.428;8.378;2023-03-01T12:19:08;8.80;;;6.93;;
64854;SDS011;51321;50.428;8.378;2023-03-01T12:22:15;14.60;;;7.65;;
64854;SDS011;51321;50.428;8.378;2023-03-01T12:25:16;10.65;;;7.68;;
64854;SDS011;51321;50.428;8.378;2023-03-01T12:31:39;13.05;;;8.05;;
64854;SDS011;51321;50.428;8.378;2023-03-01T12:34:32;11.02;;;7.13;;
64854;SDS011;51321;50.428;8.378;2023-03-01T12:37:36;9.48;;;6.57;;
64854;SDS011;51321;50.428;8.378;2023-03-01T12:40:31;8.55;;;6.18;;
64854;SDS011;51321;50.428;8.378;2023-03-01T12:43:24;9.27;;;6.65;;
64854;SDS011;51321;50.428;8.378;2023-03-01T12:46:20;11.50;;;6.88;;
64854;SDS011;51321;50.428;8.378;2023-03-01T12:49:10;11.82;;;7.28;;
64854;SDS011;51321;50.428;8.378;2023-03-01T12:51:56;10.95;;;7.40;;
64854;SDS011;51321;50.428;8.378;2023-03-01T12:54:40;11.45;;;8.25;;
64854;SDS011;51321;50.428;8.378;2023-03-01T12:57:24;11.55;;;7.78;;
64854;SDS011;51321;50.428;8.378;2023-03-01T13:00:18;13.07;;;7.32;;
64854;SDS011;51321;50.428;8.378;2023-03-01T13:03:10;11.75;;;7.13;;
64854;SDS011;51321;50.428;8.378;2023-03-01T13:06:04;9.23;;;6.80;;
64854;SDS011;51321;50.428;8.378;2023-03-01T13:08:53;10.90;;;7.38;;
64854;SDS011;51321;50.428;8.378;2023-03-01T13:11:40;10.88;;;7.45;;
64854;SDS011;51321;50.428;8.378;2023-03-01T13:14:34;9.93;;;7.45;;
64854;SDS011;51321;50.428;8.378;2023-03-01T13:20:23;8.65;;;6.80;;
64854;SDS011;51321;50.428;8.378;2023-03-01T13:23:09;10.55;;;7.43;;
64854;SDS011;51321;50.428;8.378;2023-03-01T13:26:01;10.10;;;7.28;;
64854;SDS011;51321;50.428;8.378;2023-03-01T13:34:52;10.70;;;7.07;;
64854;SDS011;51321;50.428;8.378;2023-03-01T13:37:37;11.23;;;7.25;;
64854;SDS011;51321;50.428;8.378;2023-03-01T13:43:37;12.75;;;6.97;;
64854;SDS011;51321;50.428;8.378;2023-03-01T13:46:20;8.98;;;6.85;;
64854;SDS011;51321;50.428;8.378;2023-03-01T13:49:03;12.63;;;6.47;;
64854;SDS011;51321;50.428;8.378;2023-03-01T13:51:45;12.13;;;6.80;;
64854;SDS011;51321;50.428;8.378;2023-03-01T13:54:28;12.23;;;7.55;;
64854;SDS011;51321;50.428;8.378;2023-03-01T13:57:12;10.10;;;7.13;;
64854;SDS011;51321;50.428;8.378;2023-03-01T14:00:05;9.52;;;6.95;;
64854;SDS011;51321;50.428;8.378;2023-03-01T14:02:48;12.60;;;6.97;;
64854;SDS011;51321;50.428;8.378;2023-03-01T14:05:41;11.07;;;7.10;;
64854;SDS011;51321;50.428;8.378;2023-03-01T14:08:24;8.73;;;6.55;;
64854;SDS011;51321;50.428;8.378;2023-03-01T14:14:44;11.90;;;6.82;;
64854;SDS011;51321;50.428;8.378;2023-03-01T14:17:36;10.48;;;7.22;;
64854;SDS011;51321;50.428;8.378;2023-03-01T14:20:30;10.98;;;7.03;;
64854;SDS011;51321;50.428;8.378;2023-03-01T14:23:15;10.02;;;6.20;;
64854;SDS011;51321;50.428;8.378;2023-03-01T14:25:59;11.02;;;7.13;;
64854;SDS011;51321;50.428;8.378;2023-03-01T14:28:41;9.45;;;6.63;;
64854;SDS011;51321;50.428;8.378;2023-03-01T14:31:32;9.85;;;6.10;;
64854;SDS011;51321;50.428;8.378;2023-03-01T14:34:19;8.98;;;6.18;;
64854;SDS011;51321;50.428;8.378;2023-03-01T14:37:09;9.25;;;5.93;;
64854;SDS011;51321;50.428;8.378;2023-03-01T14:39:51;11.38;;;6.45;;
64854;SDS011;51321;50.428;8.378;2023-03-01T14:42:34;10.17;;;6.47;;
64854;SDS011;51321;50.428;8.378;2023-03-01T14:45:16;8.48;;;5.93;;
64854;SDS011;51321;50.428;8.378;2023-03-01T14:50:43;15.35;;;8.32;;
64854;SDS011;51321;50.428;8.378;2023-03-01T14:53:25;8.20;;;6.07;;
64854;SDS011;51321;50.428;8.378;2023-03-01T14:56:12;11.18;;;6.35;;
64854;SDS011;51321;50.428;8.378;2023-03-01T14:58:57;7.90;;;5.38;;
64854;SDS011;51321;50.428;8.378;2023-03-01T15:01:39;8.70;;;6.00;;
64854;SDS011;51321;50.428;8.378;2023-03-01T15:04:21;8.52;;;5.35;;
64854;SDS011;51321;50.428;8.378;2023-03-01T15:07:04;8.13;;;6.03;;
64854;SDS011;51321;50.428;8.378;2023-03-01T15:09:45;9.27;;;5.63;;
64854;SDS011;51321;50.428;8.378;2023-03-01T15:12:37;8.48;;;6.10;;
64854;SDS011;51321;50.428;8.378;2023-03-01T15:15:21;9.63;;;5.70;;
64854;SDS011;51321;50.428;8.378;2023-03-01T15:18:14;8.43;;;4.93;;
64854;SDS011;51321;50.428;8.378;2023-03-01T15:21:05;8.70;;;5.18;;
64854;SDS011;51321;50.428;8.378;2023-03-01T15:23:50;10.90;;;5.70;;
64854;SDS011;51321;50.428;8.378;2023-03-01T15:26:35;7.63;;;5.50;;
64854;SDS011;51321;50.428;8.378;2023-03-01T15:29:21;10.40;;;5.65;;
64854;SDS011;51321;50.428;8.378;2023-03-01T15:32:22;8.93;;;5.20;;
64854;SDS011;51321;50.428;8.378;2023-03-01T15:38:26;10.45;;;5.78;;
64854;SDS011;51321;50.428;8.378;2023-03-01T15:41:23;10.18;;;5.28;;
64854;SDS011;51321;50.428;8.378;2023-03-01T15:44:14;9.82;;;4.95;;
64854;SDS011;51321;50.428;8.378;2023-03-01T15:46:55;8.68;;;5.07;;
64854;SDS011;51321;50.428;8.378;2023-03-01T15:49:37;6.97;;;5.05;;
64854;SDS011;51321;50.428;8.378;2023-03-01T15:52:22;7.70;;;4.55;;
64854;SDS011;51321;50.428;8.378;2023-03-01T15:55:14;8.70;;;4.40;;
64854;SDS011;51321;50.428;8.378;2023-03-01T15:57:59;6.82;;;4.63;;
64854;SDS011;51321;50.428;8.378;2023-03-01T16:00:42;6.05;;;4.00;;
64854;SDS011;51321;50.428;8.378;2023-03-01T16:03:23;9.82;;;4.68;;
64854;SDS011;51321;50.428;8.378;2023-03-01T16:06:05;7.63;;;4.40;;
64854;SDS011;51321;50.428;8.378;2023-03-01T16:08:47;7.90;;;4.40;;
64854;SDS011;51321;50.428;8.378;2023-03-01T16:11:28;5.97;;;4.10;;
64854;SDS011;51321;50.428;8.378;2023-03-01T16:16:53;9.48;;;4.72;;
64854;SDS011;51321;50.428;8.378;2023-03-01T16:19:35;7.30;;;4.68;;
64854;SDS011;51321;50.428;8.378;2023-03-01T16:22:16;8.98;;;4.93;;
64854;SDS011;51321;50.428;8.378;2023-03-01T16:24:59;10.20;;;5.55;;
64854;SDS011;51321;50.428;8.378;2023-03-01T16:27:41;10.50;;;5.55;;
64854;SDS011;51321;50.428;8.378;2023-03-01T16:30:24;8.00;;;5.05;;
64854;SDS011;51321;50.428;8.378;2023-03-01T16:33:05;8.00;;;4.65;;
64854;SDS011;51321;50.428;8.378;2023-03-01T16:35:46;6.32;;;5.05;;
64854;SDS011;51321;50.428;8.378;2023-03-01T16:38:28;6.45;;;4.30;;
64854;SDS011;51321;50.428;8.378;2023-03-01T16:41:12;9.18;;;4.80;;
64854;SDS011;51321;50.428;8.378;2023-03-01T16:43:54;8.32;;;5.03;;
64854;SDS011;51321;50.428;8.378;2023-03-01T16:46:36;8.05;;;4.93;;
64854;SDS011;51321;50.428;8.378;2023-03-01T16:49:18;10.20;;;6.00;;
64854;SDS011;51321;50.428;8.378;2023-03-01T16:51:59;11.25;;;5.28;;
64854;SDS011;51321;50.428;8.378;2023-03-01T16:54:40;10.63;;;4.65;;
64854;SDS011;51321;50.428;8.378;2023-03-01T16:57:20;11.35;;;5.07;;
64854;SDS011;51321;50.428;8.378;2023-03-01T17:00:01;7.50;;;4.82;;